Time;durP1;ratioP1;P1;durP2;ratioP2;P2;SDS_P1;SDS_P2;PMS_P1;PMS_P2;Temp;Humidity;BMP_temperature;BMP_pressure;BME280_temperature;BME280_humidity;BME280_pressure;Samples;Min_cycle;Max_cycle;Signal;HPM_P1;HPM_P2
2022/08/02 00:00:14;;;;;;;0.30;0.30;;;22.20;70.10;;;;;;4986672;28;20046;-21
2022/08/02 00:02:43;;;;;;;0.30;0.30;;;22.20;70.10;;;;;;4984853;28;20034;-22
2022/08/02 00:05:09;;;;;;;0.40;0.20;;;22.20;70.00;;;;;;4987770;28;20061;-22
2022/08/02 00:07:35;;;;;;;0.30;0.30;;;22.20;70.10;;;;;;4987654;28;20050;-23
2022/08/02 00:10:00;;;;;;;0.50;0.40;;;22.20;70.20;;;;;;4988164;28;20058;-21
2022/08/02 00:12:26;;;;;;;0.22;0.22;;;22.20;70.10;;;;;;4989295;28;20050;-23
2022/08/02 00:14:52;;;;;;;0.52;0.28;;;22.10;70.10;;;;;;4986281;28;20569;-21
2022/08/02 00:17:17;;;;;;;0.38;0.20;;;22.00;70.50;;;;;;4986204;28;20517;-22
2022/08/02 00:19:43;;;;;;;0.20;0.20;;;22.10;70.40;;;;;;4987159;28;20043;-21
2022/08/02 00:22:09;;;;;;;0.30;0.30;;;22.00;71.30;;;;;;4989584;28;20527;-21
2022/08/02 00:24:34;;;;;;;0.30;0.30;;;22.00;70.50;;;;;;4987520;28;20054;-22
2022/08/02 00:27:02;;;;;;;0.30;0.30;;;22.10;70.50;;;;;;4985672;28;20133;-24
2022/08/02 00:29:31;;;;;;;0.30;0.30;;;22.10;70.50;;;;;;4986050;28;20581;-22
2022/08/02 00:31:56;;;;;;;0.22;0.20;;;22.00;70.50;;;;;;4985318;28;20067;-22
2022/08/02 00:34:22;;;;;;;0.50;0.32;;;22.00;70.60;;;;;;4990081;28;20104;-22
2022/08/02 00:36:48;;;;;;;0.30;0.30;;;22.00;70.60;;;;;;4986108;28;20042;-22
2022/08/02 00:39:13;;;;;;;0.30;0.22;;;22.00;70.90;;;;;;4988399;28;20052;-21
2022/08/02 00:41:50;;;;;;;0.20;0.20;;;21.90;71.00;;;;;;4987156;28;20046;-21
2022/08/02 00:44:16;;;;;;;0.35;0.30;;;21.90;71.10;;;;;;4984867;28;20050;-21
2022/08/02 00:46:42;;;;;;;0.45;0.30;;;21.90;71.10;;;;;;4984371;28;20797;-22
2022/08/02 00:49:08;;;;;;;0.30;0.30;;;21.90;71.20;;;;;;4988798;28;20042;-22
2022/08/02 00:51:34;;;;;;;0.52;0.20;;;21.80;71.10;;;;;;4987923;28;20054;-22
2022/08/02 00:53:59;;;;;;;0.70;0.40;;;21.90;71.90;;;;;;4985604;28;20522;-21
2022/08/02 00:56:25;;;;;;;0.20;0.20;;;21.90;71.10;;;;;;4984952;28;20034;-21
2022/08/02 00:58:50;;;;;;;0.47;0.38;;;21.80;71.00;;;;;;4986398;28;20053;-25
2022/08/02 01:01:16;;;;;;;0.30;0.30;;;21.80;71.20;;;;;;4989549;28;20487;-22
2022/08/02 01:03:41;;;;;;;0.57;0.30;;;21.90;71.10;;;;;;4985882;28;20038;-23
2022/08/02 01:06:07;;;;;;;0.30;0.30;;;21.90;71.00;;;;;;4985508;28;20041;-23
2022/08/02 01:08:33;;;;;;;0.35;0.35;;;21.90;71.20;;;;;;4986710;28;20078;-22
2022/08/02 01:10:58;;;;;;;0.40;0.30;;;21.80;71.50;;;;;;4986527;28;20125;-22
2022/08/02 01:13:24;;;;;;;0.63;0.30;;;21.80;71.60;;;;;;4988198;28;20042;-22
2022/08/02 01:15:57;;;;;;;0.30;0.30;;;21.80;71.60;;;;;;4999486;28;20077;-21
2022/08/02 01:18:26;;;;;;;0.30;0.30;;;21.70;71.60;;;;;;4984307;28;20050;-22
2022/08/02 01:21:13;;;;;;;0.50;0.50;;;21.80;71.60;;;;;;5017130;28;20066;-21
2022/08/02 01:23:52;;;;;;;0.32;0.22;;;21.70;71.60;;;;;;4986081;28;20043;-21
2022/08/02 01:26:35;;;;;;;0.52;0.40;;;21.80;71.40;;;;;;4984205;28;20447;-24
2022/08/02 01:29:21;;;;;;;0.40;0.40;;;21.80;71.50;;;;;;4986389;28;20055;-22
2022/08/02 01:31:52;;;;;;;0.55;0.35;;;21.70;71.50;;;;;;5000000;28;20042;-23
2022/08/02 01:34:34;;;;;;;1.13;0.50;;;21.80;71.30;;;;;;4986605;28;20050;-22
2022/08/02 01:37:25;;;;;;;0.52;0.32;;;21.80;71.30;;;;;;4986952;28;20050;-25
2022/08/02 01:39:56;;;;;;;0.47;0.40;;;21.80;71.20;;;;;;4984553;28;20081;-22
2022/08/02 01:42:22;;;;;;;0.40;0.35;;;21.70;71.30;;;;;;4985384;28;20158;-22
2022/08/02 01:44:48;;;;;;;0.40;0.40;;;21.80;71.20;;;;;;4984653;28;20046;-21
2022/08/02 01:47:20;;;;;;;0.30;0.30;;;21.80;71.10;;;;;;4985494;28;20109;-26
2022/08/02 01:49:47;;;;;;;0.50;0.40;;;21.70;71.20;;;;;;4968626;28;20042;-22
2022/08/02 01:52:22;;;;;;;0.40;0.40;;;21.70;71.20;;;;;;5018757;28;20046;-21
2022/08/02 01:55:07;;;;;;;0.68;0.40;;;21.60;71.30;;;;;;4997530;28;20042;-22
2022/08/02 01:57:36;;;;;;;0.30;0.30;;;21.70;71.20;;;;;;5011820;28;20038;-21
2022/08/02 02:00:03;;;;;;;1.15;0.65;;;21.60;71.30;;;;;;5017363;28;20050;-21
2022/08/02 02:02:29;;;;;;;0.30;0.30;;;21.60;71.20;;;;;;4985796;28;20519;-22
2022/08/02 02:04:55;;;;;;;0.40;0.40;;;21.60;71.20;;;;;;5000266;28;20057;-25
2022/08/02 02:07:20;;;;;;;0.50;0.50;;;21.70;70.90;;;;;;4988059;28;20515;-21
2022/08/02 02:09:46;;;;;;;0.52;0.52;;;21.60;70.90;;;;;;4984505;28;20053;-22
2022/08/02 02:12:12;;;;;;;0.60;0.60;;;21.60;70.90;;;;;;4984607;28;20555;-21
2022/08/02 02:14:37;;;;;;;0.60;0.30;;;21.60;71.10;;;;;;4982442;28;20081;-23
2022/08/02 02:17:03;;;;;;;0.65;0.40;;;21.60;70.90;;;;;;4982672;28;20041;-28
2022/08/02 02:19:28;;;;;;;0.40;0.40;;;21.60;71.10;;;;;;4987840;28;20502;-27
2022/08/02 02:21:54;;;;;;;0.38;0.38;;;21.50;71.20;;;;;;4982550;28;20026;-28
2022/08/02 02:24:20;;;;;;;0.38;0.38;;;21.60;71.10;;;;;;4983008;28;20054;-29
2022/08/02 02:26:45;;;;;;;0.38;0.38;;;21.50;71.30;;;;;;4985046;28;20040;-28
2022/08/02 02:29:11;;;;;;;0.40;0.30;;;21.50;71.30;;;;;;4984240;28;20420;-27
2022/08/02 02:31:38;;;;;;;0.47;0.47;;;21.60;71.20;;;;;;5017451;28;20058;-27
2022/08/02 02:34:13;;;;;;;0.30;0.30;;;21.60;71.20;;;;;;4985025;28;20042;-29
2022/08/02 02:36:40;;;;;;;1.15;0.68;;;21.50;71.20;;;;;;5013763;28;20053;-28
2022/08/02 02:39:06;;;;;;;0.40;0.30;;;21.50;72.20;;;;;;4985829;28;20058;-26
2022/08/02 02:41:32;;;;;;;0.55;0.55;;;21.50;71.50;;;;;;4985898;28;20087;-38
2022/08/02 02:43:59;;;;;;;0.68;0.40;;;21.50;72.30;;;;;;4984388;28;20043;-31
2022/08/02 02:46:25;;;;;;;0.50;0.50;;;21.50;72.10;;;;;;4993785;28;20042;-29
2022/08/02 02:48:51;;;;;;;0.70;0.30;;;21.40;71.70;;;;;;4996877;28;20050;-27
2022/08/02 02:51:17;;;;;;;0.63;0.63;;;21.40;71.80;;;;;;4983294;28;20046;-27
2022/08/02 02:53:43;;;;;;;0.30;0.30;;;21.50;71.60;;;;;;4981301;28;20462;-29
2022/08/02 02:56:09;;;;;;;0.40;0.40;;;21.40;71.70;;;;;;5015925;28;20411;-27
2022/08/02 02:58:35;;;;;;;0.50;0.50;;;21.40;71.70;;;;;;5017764;28;20073;-27
2022/08/02 03:03:45;;;;;;;0.47;0.47;;;21.50;71.90;;;;;;4982443;28;20621;-28
2022/08/02 03:06:11;;;;;;;0.50;0.50;;;21.40;71.90;;;;;;4984560;28;20042;-28
2022/08/02 03:08:36;;;;;;;0.47;0.47;;;21.40;71.80;;;;;;4983647;28;20535;-29
2022/08/02 03:11:02;;;;;;;0.40;0.40;;;21.50;71.80;;;;;;5015681;28;20113;-27
2022/08/02 03:13:27;;;;;;;0.47;0.47;;;21.40;72.00;;;;;;4986490;28;20046;-32
2022/08/02 03:15:53;;;;;;;0.60;0.60;;;21.30;72.10;;;;;;4983218;28;20137;-25
2022/08/02 03:18:38;;;;;;;0.50;0.50;;;21.30;72.00;;;;;;4983620;28;20404;-31
2022/08/02 03:21:13;;;;;;;0.50;0.50;;;21.30;72.00;;;;;;4982746;28;20046;-26
2022/08/02 03:23:39;;;;;;;0.55;0.55;;;21.20;72.10;;;;;;4984427;28;20050;-26
2022/08/02 03:26:05;;;;;;;0.68;0.68;;;21.20;72.10;;;;;;4981007;28;20047;-27
2022/08/02 03:28:31;;;;;;;0.50;0.50;;;21.30;72.10;;;;;;4986118;28;20581;-27
2022/08/02 03:30:57;;;;;;;0.55;0.55;;;21.20;72.10;;;;;;4986237;28;20150;-28
2022/08/02 03:33:23;;;;;;;0.60;0.60;;;21.20;72.20;;;;;;4986196;28;20471;-27
2022/08/02 03:35:49;;;;;;;0.70;0.70;;;21.20;71.90;;;;;;4988687;28;20080;-23
2022/08/02 03:38:16;;;;;;;0.93;0.63;;;21.20;71.80;;;;;;4987636;28;20529;-27
2022/08/02 03:40:42;;;;;;;0.60;0.60;;;21.20;71.80;;;;;;4989220;28;20085;-33
2022/08/02 03:43:07;;;;;;;0.70;0.70;;;21.20;71.90;;;;;;4989001;28;20074;-28
2022/08/02 03:45:33;;;;;;;0.55;0.55;;;21.20;71.80;;;;;;5006924;28;20042;-32
2022/08/02 03:47:59;;;;;;;0.50;0.50;;;21.10;72.00;;;;;;5021199;28;20073;-30
2022/08/02 03:50:24;;;;;;;0.50;0.50;;;21.10;71.90;;;;;;4984244;28;20042;-27
2022/08/02 03:52:50;;;;;;;0.40;0.40;;;21.10;72.00;;;;;;5016017;28;20043;-27
2022/08/02 03:55:15;;;;;;;0.70;0.68;;;21.10;72.20;;;;;;5004555;28;20462;-31
2022/08/02 03:57:41;;;;;;;0.50;0.50;;;21.10;72.10;;;;;;4988203;28;20056;-30
2022/08/02 04:00:08;;;;;;;0.60;0.60;;;21.10;72.30;;;;;;4987258;28;20561;-27
2022/08/02 04:02:35;;;;;;;0.60;0.60;;;21.00;72.40;;;;;;4987997;28;20488;-28
2022/08/02 04:05:00;;;;;;;1.33;0.60;;;21.00;72.30;;;;;;4988089;28;20093;-29
2022/08/02 04:07:26;;;;;;;0.57;0.57;;;21.10;72.40;;;;;;4990184;28;20949;-26
2022/08/02 04:09:51;;;;;;;0.60;0.60;;;21.10;72.10;;;;;;4987607;28;20571;-28
2022/08/02 04:12:17;;;;;;;0.75;0.50;;;21.10;72.10;;;;;;4987149;28;20050;-28
2022/08/02 04:14:42;;;;;;;0.70;0.70;;;21.10;72.30;;;;;;4987447;28;20046;-29
2022/08/02 04:17:08;;;;;;;0.45;0.45;;;21.00;72.40;;;;;;4985411;28;20053;-31
2022/08/02 04:19:37;;;;;;;0.32;0.32;;;21.10;72.10;;;;;;5020362;28;20038;-27
2022/08/02 04:22:05;;;;;;;0.55;0.45;;;21.00;72.20;;;;;;4988570;28;20050;-28
2022/08/02 04:24:34;;;;;;;0.50;0.50;;;21.10;72.10;;;;;;4987819;28;20054;-29
2022/08/02 04:27:00;;;;;;;0.45;0.40;;;20.90;72.40;;;;;;4969601;28;20073;-27
2022/08/02 04:29:25;;;;;;;0.32;0.32;;;21.00;72.50;;;;;;4987424;28;20070;-27
2022/08/02 04:31:52;;;;;;;0.50;0.50;;;21.00;72.60;;;;;;4984662;28;20051;-20
2022/08/02 04:34:17;;;;;;;1.00;0.60;;;20.90;72.60;;;;;;5004809;28;20515;-28
2022/08/02 04:36:43;;;;;;;0.38;0.38;;;20.90;73.60;;;;;;4987702;28;20112;-30
2022/08/02 04:39:08;;;;;;;0.40;0.40;;;20.90;72.80;;;;;;4986454;28;20050;-28
2022/08/02 04:41:41;;;;;;;0.77;0.77;;;20.90;73.00;;;;;;4986260;28;20522;-28
2022/08/02 04:44:07;;;;;;;0.47;0.45;;;20.90;72.70;;;;;;4986464;28;20046;-29
2022/08/02 04:46:33;;;;;;;0.60;0.60;;;20.80;72.80;;;;;;4989003;28;20038;-27
2022/08/02 04:48:59;;;;;;;0.65;0.60;;;20.90;72.90;;;;;;4988080;28;20062;-27
2022/08/02 04:51:24;;;;;;;1.25;0.60;;;20.90;72.70;;;;;;4986255;28;20141;-31
2022/08/02 04:53:50;;;;;;;0.73;0.57;;;20.80;72.70;;;;;;4985601;28;20397;-29
2022/08/02 04:56:15;;;;;;;0.47;0.45;;;20.80;72.90;;;;;;4987479;28;20117;-26
2022/08/02 04:58:41;;;;;;;0.50;0.50;;;20.80;72.80;;;;;;4988144;28;20054;-27
2022/08/02 05:01:06;;;;;;;0.50;0.50;;;20.80;73.00;;;;;;4987040;28;20047;-27
2022/08/02 05:03:32;;;;;;;0.40;0.40;;;20.90;73.00;;;;;;4987604;28;20566;-30
2022/08/02 05:05:59;;;;;;;0.50;0.50;;;20.80;72.80;;;;;;4987105;28;20038;-29
2022/08/02 05:08:25;;;;;;;0.60;0.60;;;20.80;72.80;;;;;;4986940;28;20121;-29
2022/08/02 05:10:50;;;;;;;0.47;0.47;;;20.80;72.70;;;;;;4986820;28;20149;-27
2022/08/02 05:13:16;;;;;;;0.40;0.40;;;20.80;72.80;;;;;;4987879;28;20042;-27
2022/08/02 05:15:42;;;;;;;0.60;0.60;;;20.80;72.80;;;;;;4987000;28;20050;-27
2022/08/02 05:18:07;;;;;;;0.40;0.40;;;20.80;72.90;;;;;;4984570;28;20050;-28
2022/08/02 05:20:33;;;;;;;0.52;0.52;;;20.80;73.10;;;;;;4987570;28;20069;-28
2022/08/02 05:22:58;;;;;;;0.70;0.55;;;20.80;73.10;;;;;;4984853;28;20415;-26
2022/08/02 05:25:24;;;;;;;0.45;0.40;;;20.70;73.10;;;;;;4987409;28;20042;-27
2022/08/02 05:27:58;;;;;;;0.41;0.41;;;20.80;73.20;;;;;;4938666;28;10000886;-26
2022/08/02 05:30:24;;;;;;;0.95;0.80;;;20.90;73.00;;;;;;4976562;28;20306;-31
2022/08/02 05:32:51;;;;;;;0.82;0.77;;;21.00;72.30;;;;;;4986124;28;20100;-27
2022/08/02 05:35:18;;;;;;;0.43;0.43;;;21.10;72.00;;;;;;4640563;28;10001197;-27
2022/08/02 05:37:44;;;;;;;0.57;0.57;;;21.20;72.00;;;;;;4979754;28;20058;-30
2022/08/02 05:40:10;;;;;;;0.60;0.60;;;21.00;72.70;;;;;;4978666;28;20035;-28
2022/08/02 05:42:36;;;;;;;0.60;0.60;;;21.10;72.80;;;;;;4982515;28;20806;-31
2022/08/02 05:45:02;;;;;;;0.98;0.32;;;21.10;73.00;;;;;;4978406;28;20042;-26
2022/08/02 05:47:27;;;;;;;0.52;0.52;;;21.10;73.20;;;;;;4981075;28;20069;-31
2022/08/02 05:49:53;;;;;;;0.50;0.50;;;21.00;73.10;;;;;;4975912;28;20042;-30
2022/08/02 05:52:19;;;;;;;0.70;0.70;;;21.00;73.30;;;;;;4981131;28;20050;-33
2022/08/02 05:54:54;;;;;;;0.60;0.60;;;21.00;73.50;;;;;;4636348;28;10000233;-31
2022/08/02 05:57:49;;;;;;;0.55;0.55;;;21.00;73.70;;;;;;4984195;28;20054;-28
2022/08/02 06:00:14;;;;;;;0.50;0.50;;;21.00;73.90;;;;;;4982768;28;20073;-27
2022/08/02 06:03:04;;;;;;;1.08;0.50;;;21.00;73.90;;;;;;4980622;28;20074;-25
2022/08/02 06:05:36;;;;;;;0.50;0.50;;;21.00;73.80;;;;;;4980360;28;20140;-28
2022/08/02 06:08:03;;;;;;;1.75;0.50;;;21.10;73.80;;;;;;4980937;28;20101;-29
2022/08/02 06:10:28;;;;;;;0.40;0.40;;;21.10;74.20;;;;;;4981404;28;20054;-27
2022/08/02 06:13:08;;;;;;;0.80;0.60;;;21.00;74.40;;;;;;5014839;28;20046;-28
2022/08/02 06:15:36;;;;;;;1.35;0.70;;;21.00;74.50;;;;;;4975816;28;20051;-29
2022/08/02 06:18:02;;;;;;;1.50;0.40;;;21.00;74.80;;;;;;4982764;28;20046;-28
2022/08/02 06:20:34;;;;;;;1.13;0.50;;;20.90;75.00;;;;;;4984492;28;20152;-27
2022/08/02 06:23:00;;;;;;;0.50;0.50;;;20.90;75.30;;;;;;4983462;28;20053;-26
2022/08/02 06:25:26;;;;;;;0.60;0.60;;;20.90;75.10;;;;;;4982528;28;20054;-26
2022/08/02 06:27:51;;;;;;;0.57;0.50;;;20.80;75.40;;;;;;4983217;28;20084;-27
2022/08/02 06:30:17;;;;;;;0.52;0.45;;;20.80;75.60;;;;;;4983300;28;23357;-28
2022/08/02 06:32:42;;;;;;;0.60;0.60;;;20.90;75.50;;;;;;4985899;28;20109;-27
2022/08/02 06:35:08;;;;;;;1.77;0.40;;;20.80;75.80;;;;;;4996959;28;20562;-31
2022/08/02 06:37:37;;;;;;;0.65;0.40;;;20.80;76.20;;;;;;4988060;28;20042;-27
2022/08/02 06:40:21;;;;;;;1.02;0.52;;;20.90;76.00;;;;;;5014311;28;20121;-27
2022/08/02 06:43:08;;;;;;;0.75;0.47;;;20.90;76.80;;;;;;4988153;28;20034;-27
2022/08/02 06:45:34;;;;;;;0.70;0.30;;;20.90;76.10;;;;;;4985089;28;20122;-29
2022/08/02 06:48:00;;;;;;;0.50;0.40;;;20.70;76.70;;;;;;4986454;28;20137;-30
2022/08/02 06:50:25;;;;;;;0.60;0.60;;;20.70;77.20;;;;;;4984760;28;20511;-28
2022/08/02 06:52:51;;;;;;;0.50;0.50;;;20.80;76.40;;;;;;4982274;28;20057;-26
2022/08/02 06:55:16;;;;;;;0.50;0.50;;;20.80;76.80;;;;;;4981905;28;20046;-29
2022/08/02 06:57:42;;;;;;;1.38;0.40;;;20.80;76.40;;;;;;4984260;28;20046;-31
2022/08/02 07:00:09;;;;;;;0.50;0.50;;;20.90;76.30;;;;;;4982849;28;20050;-30
2022/08/02 07:02:35;;;;;;;0.50;0.40;;;20.90;76.10;;;;;;4983389;28;20061;-28
2022/08/02 07:05:02;;;;;;;0.40;0.40;;;20.90;76.20;;;;;;5013936;28;20045;-28
2022/08/02 07:07:28;;;;;;;0.75;0.40;;;21.00;76.10;;;;;;4986502;28;20514;-29
2022/08/02 07:09:53;;;;;;;0.98;0.50;;;21.00;75.50;;;;;;4989432;28;20048;-27
2022/08/02 07:12:19;;;;;;;0.93;0.50;;;21.10;75.60;;;;;;4989693;28;20100;-29
2022/08/02 07:14:44;;;;;;;2.47;0.32;;;21.10;75.70;;;;;;4990715;28;20860;-27
2022/08/02 07:17:11;;;;;;;0.30;0.30;;;21.10;75.60;;;;;;4988824;28;20046;-27
2022/08/02 07:19:36;;;;;;;1.70;0.70;;;21.20;76.00;;;;;;4990343;28;20586;-28
2022/08/02 07:22:02;;;;;;;1.08;0.40;;;21.20;75.50;;;;;;4990505;28;20038;-27
2022/08/02 07:24:28;;;;;;;1.08;0.60;;;21.30;75.30;;;;;;4988618;28;20054;-26
2022/08/02 07:26:54;;;;;;;0.40;0.40;;;21.30;75.20;;;;;;4988453;28;22231;-27
2022/08/02 07:29:19;;;;;;;0.50;0.50;;;21.40;75.90;;;;;;5020821;28;20089;-27
2022/08/02 07:31:45;;;;;;;0.50;0.40;;;21.40;74.60;;;;;;4989908;28;20050;-27
2022/08/02 07:34:10;;;;;;;1.73;0.50;;;21.50;74.40;;;;;;4990303;28;20046;-32
2022/08/02 07:36:36;;;;;;;0.90;0.60;;;21.50;74.10;;;;;;4988039;28;20054;-28
2022/08/02 07:39:02;;;;;;;0.40;0.28;;;21.60;74.00;;;;;;4987808;28;20125;-25
2022/08/02 07:41:28;;;;;;;0.40;0.40;;;21.60;73.50;;;;;;5005090;28;20050;-27
2022/08/02 07:43:53;;;;;;;0.40;0.32;;;21.60;73.60;;;;;;4988907;28;20035;-30
2022/08/02 07:46:19;;;;;;;0.35;0.35;;;21.70;73.10;;;;;;4987176;28;20030;-28
2022/08/02 07:48:46;;;;;;;0.35;0.35;;;21.70;73.10;;;;;;4987872;28;20439;-29
2022/08/02 07:51:12;;;;;;;0.80;0.40;;;21.70;72.90;;;;;;4988300;28;20485;-30
2022/08/02 07:53:37;;;;;;;0.40;0.40;;;21.80;72.80;;;;;;4987428;28;20048;-29
2022/08/02 07:56:03;;;;;;;0.82;0.47;;;21.80;72.90;;;;;;4987351;28;20035;-27
2022/08/02 07:58:29;;;;;;;0.63;0.60;;;21.80;72.80;;;;;;4988463;28;20054;-28
2022/08/02 08:00:54;;;;;;;2.05;0.35;;;21.80;72.80;;;;;;4988471;28;20185;-28
2022/08/02 08:03:20;;;;;;;0.75;0.52;;;21.80;72.70;;;;;;4986120;28;20034;-27
2022/08/02 08:05:46;;;;;;;0.40;0.40;;;21.80;72.10;;;;;;4987897;28;20423;-26
2022/08/02 08:08:11;;;;;;;0.40;0.40;;;21.80;72.60;;;;;;4986870;28;20388;-27
2022/08/02 08:10:39;;;;;;;0.70;0.55;;;21.90;72.50;;;;;;4987251;28;20132;-27
2022/08/02 08:13:04;;;;;;;0.68;0.60;;;21.90;72.40;;;;;;4987200;28;20043;-29
2022/08/02 08:15:30;;;;;;;0.40;0.40;;;22.00;72.30;;;;;;4983393;28;20065;-25
2022/08/02 08:17:56;;;;;;;0.30;0.30;;;22.00;72.20;;;;;;4985434;28;20607;-24
2022/08/02 08:20:21;;;;;;;0.52;0.45;;;22.00;72.10;;;;;;4983438;28;20026;-22
2022/08/02 08:22:47;;;;;;;0.30;0.30;;;22.00;72.20;;;;;;4987027;28;20535;-22
2022/08/02 08:25:13;;;;;;;0.50;0.50;;;22.00;72.30;;;;;;4987344;28;20111;-21
2022/08/02 08:27:47;;;;;;;0.50;0.50;;;22.10;71.70;;;;;;4987321;28;20046;-23
2022/08/02 08:30:12;;;;;;;;;;;22.10;72.50;;;;;;4985594;28;20062;-21
2022/08/02 08:32:38;;;;;;;1.67;0.32;;;22.10;72.80;;;;;;4984428;28;19918;-22
2022/08/02 08:35:05;;;;;;;0.30;0.30;;;22.20;72.60;;;;;;4639337;28;9999820;-22
2022/08/02 08:37:34;;;;;;;0.45;0.40;;;22.20;72.80;;;;;;4634946;28;9999796;-24
2022/08/02 08:40:00;;;;;;;0.70;0.40;;;22.20;72.80;;;;;;4984009;28;20461;-22
2022/08/02 08:42:26;;;;;;;0.40;0.30;;;22.30;72.80;;;;;;4983474;28;20152;-23
2022/08/02 08:44:52;;;;;;;0.30;0.30;;;22.30;72.50;;;;;;4982710;28;20034;-26
2022/08/02 08:47:18;;;;;;;0.93;0.47;;;22.30;72.70;;;;;;4983319;28;20129;-21
2022/08/02 08:49:44;;;;;;;1.77;0.43;;;22.30;72.50;;;;;;4999234;28;20518;-23
2022/08/02 08:52:10;;;;;;;4.65;0.68;;;22.40;71.90;;;;;;4983359;28;20056;-24
2022/08/02 08:54:35;;;;;;;0.73;0.40;;;22.40;71.90;;;;;;4981736;28;20034;-22
2022/08/02 08:57:04;;;;;;;1.70;0.45;;;22.40;72.10;;;;;;4981799;28;20089;-21
2022/08/02 08:59:29;;;;;;;0.30;0.30;;;22.40;72.20;;;;;;4983337;28;20037;-21
2022/08/02 09:01:55;;;;;;;0.40;0.40;;;22.40;72.70;;;;;;4982199;28;20043;-23
2022/08/02 09:04:21;;;;;;;2.75;0.50;;;22.40;72.00;;;;;;4983817;28;20058;-22
2022/08/02 09:06:47;;;;;;;1.75;0.50;;;22.50;72.10;;;;;;4982923;28;20170;-24
2022/08/02 09:09:12;;;;;;;0.25;0.25;;;22.50;71.70;;;;;;4980882;28;20046;-21
2022/08/02 09:11:38;;;;;;;0.40;0.40;;;22.50;71.70;;;;;;4983515;28;20069;-21
2022/08/02 09:14:03;;;;;;;0.45;0.45;;;22.50;71.70;;;;;;4981738;28;20035;-22
2022/08/02 09:16:33;;;;;;;0.50;0.50;;;22.50;71.90;;;;;;4983742;28;20049;-22
2022/08/02 09:19:00;;;;;;;0.28;0.28;;;22.60;71.90;;;;;;4983389;28;20511;-26
2022/08/02 09:21:36;;;;;;;0.30;0.30;;;22.60;71.70;;;;;;4983241;28;20045;-23
2022/08/02 09:24:01;;;;;;;0.70;0.40;;;22.60;71.60;;;;;;4982411;28;20041;-22
2022/08/02 09:26:27;;;;;;;0.40;0.40;;;22.60;71.40;;;;;;4982351;28;20039;-21
2022/08/02 09:28:59;;;;;;;0.30;0.25;;;22.60;71.60;;;;;;4982218;28;20125;-22
2022/08/02 09:31:25;;;;;;;1.08;0.30;;;22.60;71.60;;;;;;4628810;28;10000226;-22
2022/08/02 09:33:58;;;;;;;0.40;0.40;;;22.70;71.10;;;;;;4977955;28;20053;-23
2022/08/02 09:36:24;;;;;;;0.45;0.45;;;22.70;71.30;;;;;;4974120;28;20143;-24
2022/08/02 09:39:00;;;;;;;0.30;0.30;;;22.70;71.10;;;;;;4978593;28;21385;-24
2022/08/02 09:41:27;;;;;;;0.40;0.40;;;22.70;71.30;;;;;;4977420;28;20054;-22
2022/08/02 09:43:54;;;;;;;0.70;0.50;;;22.70;71.10;;;;;;4973881;28;20062;-22
2022/08/02 09:46:28;;;;;;;1.00;0.40;;;22.70;71.10;;;;;;5010043;28;20053;-23
2022/08/02 09:48:58;;;;;;;0.43;0.40;;;22.70;70.90;;;;;;4978993;28;20045;-24
2022/08/02 09:51:28;;;;;;;0.30;0.30;;;22.80;71.20;;;;;;4979525;28;20093;-23
2022/08/02 09:53:57;;;;;;;0.40;0.40;;;22.80;71.10;;;;;;4980679;28;20078;-24
2022/08/02 09:56:25;;;;;;;0.40;0.40;;;22.80;70.60;;;;;;4985480;28;20050;-27
2022/08/02 09:58:53;;;;;;;0.77;0.40;;;22.80;70.70;;;;;;4983038;28;20046;-22
2022/08/02 10:01:31;;;;;;;0.35;0.35;;;22.80;70.90;;;;;;5017188;28;20050;-22
2022/08/02 10:03:58;;;;;;;0.40;0.30;;;22.80;70.50;;;;;;4984377;28;20051;-23
2022/08/02 10:06:24;;;;;;;1.55;0.38;;;22.80;70.60;;;;;;5013525;28;20034;-24
2022/08/02 10:08:52;;;;;;;0.40;0.40;;;22.90;70.60;;;;;;4984279;28;20050;-29
2022/08/02 10:11:20;;;;;;;0.30;0.30;;;22.90;70.30;;;;;;4984092;28;20119;-24
2022/08/02 10:14:22;;;;;;;1.10;0.50;;;22.90;70.40;;;;;;4978937;28;20284;-23
2022/08/02 10:16:47;;;;;;;0.45;0.45;;;23.00;70.30;;;;;;4973024;28;20052;-25
2022/08/02 10:19:13;;;;;;;0.75;0.60;;;23.00;70.80;;;;;;4979569;28;20431;-28
2022/08/02 10:22:17;;;;;;;0.45;0.45;;;23.00;69.90;;;;;;4981802;28;20063;-27
2022/08/02 10:24:43;;;;;;;0.50;0.50;;;23.10;70.30;;;;;;4577129;29;9999720;-26
2022/08/02 10:27:14;;;;;;;0.40;0.40;;;23.10;70.00;;;;;;4918967;29;20044;-25
2022/08/02 10:29:39;;;;;;;1.50;0.88;;;23.00;69.80;;;;;;4917150;29;20059;-23
2022/08/02 10:32:09;;;;;;;0.60;0.60;;;23.10;70.00;;;;;;4917874;29;20055;-26
2022/08/02 10:34:55;;;;;;;0.88;0.60;;;23.10;69.80;;;;;;4902707;29;20058;-26
2022/08/02 10:37:22;;;;;;;0.70;0.70;;;23.10;69.60;;;;;;4904997;29;20047;-27
2022/08/02 10:39:47;;;;;;;1.35;0.68;;;23.10;69.60;;;;;;4902988;29;20426;-27
2022/08/02 10:42:13;;;;;;;0.73;0.73;;;23.10;69.60;;;;;;4917768;29;20521;-24
2022/08/02 10:44:39;;;;;;;0.70;0.70;;;23.10;69.60;;;;;;4883976;29;20044;-26
2022/08/02 10:47:14;;;;;;;0.80;0.80;;;23.10;69.50;;;;;;4913203;29;20032;-24
2022/08/02 10:49:55;;;;;;;0.60;0.60;;;23.10;69.70;;;;;;4920720;29;20521;-25
2022/08/02 10:52:22;;;;;;;0.45;0.45;;;23.10;69.40;;;;;;4919616;29;20099;-24
2022/08/02 10:54:54;;;;;;;0.60;0.60;;;23.20;69.50;;;;;;4933948;28;20054;-23
2022/08/02 10:57:22;;;;;;;0.82;0.82;;;23.20;69.60;;;;;;4977798;28;20412;-22
2022/08/02 10:59:49;;;;;;;1.75;0.57;;;23.20;69.50;;;;;;4981871;28;20042;-23
2022/08/02 11:02:37;;;;;;;0.80;0.75;;;23.20;69.50;;;;;;4977713;28;20141;-26
2022/08/02 11:05:03;;;;;;;0.80;0.80;;;23.20;69.60;;;;;;4982785;28;20037;-25
2022/08/02 11:07:36;;;;;;;1.15;0.93;;;23.20;69.60;;;;;;4979203;28;20034;-23
2022/08/02 11:10:24;;;;;;;1.75;0.70;;;23.30;69.60;;;;;;4979000;28;20384;-24
2022/08/02 11:12:59;;;;;;;0.90;0.52;;;23.30;69.70;;;;;;4979109;28;20112;-31
2022/08/02 11:15:24;;;;;;;0.70;0.70;;;23.30;69.60;;;;;;4982060;28;20121;-24
2022/08/02 11:17:51;;;;;;;1.02;0.80;;;23.30;69.80;;;;;;4979368;28;20420;-23
2022/08/02 11:20:17;;;;;;;0.85;0.65;;;23.30;69.50;;;;;;4983043;28;20069;-23
2022/08/02 11:22:43;;;;;;;0.75;0.75;;;23.30;69.50;;;;;;4983855;28;20121;-28
2022/08/02 11:25:26;;;;;;;0.80;0.80;;;23.30;69.40;;;;;;4985539;28;20041;-24
2022/08/02 11:27:53;;;;;;;0.98;0.80;;;23.30;69.70;;;;;;4981791;28;20038;-27
2022/08/02 11:30:19;;;;;;;1.98;0.80;;;23.40;69.50;;;;;;4983407;28;20048;-23
2022/08/02 11:32:45;;;;;;;1.88;0.80;;;23.40;69.50;;;;;;4983536;28;20113;-25
2022/08/02 11:35:10;;;;;;;0.40;0.40;;;23.40;69.30;;;;;;4981588;28;20531;-26
2022/08/02 11:37:41;;;;;;;0.80;0.80;;;23.40;69.20;;;;;;4982311;28;20097;-25
2022/08/02 11:40:08;;;;;;;0.80;0.80;;;23.40;69.20;;;;;;4979810;28;20042;-24
2022/08/02 11:42:35;;;;;;;1.00;0.90;;;23.40;69.50;;;;;;4981183;28;20243;-30
2022/08/02 11:45:02;;;;;;;0.85;0.70;;;23.50;69.30;;;;;;4994940;28;20053;-26
2022/08/02 11:47:30;;;;;;;0.90;0.90;;;23.40;69.20;;;;;;4982567;28;20049;-22
2022/08/02 11:50:09;;;;;;;0.70;0.70;;;23.50;69.00;;;;;;4981529;28;20468;-24
2022/08/02 11:52:34;;;;;;;0.77;0.77;;;23.50;69.00;;;;;;4986043;28;20474;-25
2022/08/02 11:55:00;;;;;;;0.70;0.70;;;23.50;69.00;;;;;;4987555;28;21154;-29
2022/08/02 11:57:26;;;;;;;0.60;0.60;;;23.50;69.00;;;;;;4987059;28;20502;-24
2022/08/02 11:59:52;;;;;;;0.50;0.50;;;23.50;68.80;;;;;;4986242;28;20424;-25
2022/08/02 12:02:22;;;;;;;0.60;0.60;;;23.50;68.80;;;;;;4984522;28;20944;-30
2022/08/02 12:04:59;;;;;;;0.73;0.73;;;23.60;68.70;;;;;;4983544;28;20503;-29
2022/08/02 12:07:31;;;;;;;0.85;0.63;;;23.50;68.70;;;;;;4985732;28;20050;-24
2022/08/02 12:10:07;;;;;;;0.52;0.52;;;23.60;68.70;;;;;;4986032;28;20046;-29
2022/08/02 12:12:32;;;;;;;0.65;0.65;;;23.60;68.50;;;;;;4986267;28;20046;-28
2022/08/02 12:14:58;;;;;;;0.63;0.63;;;23.60;68.60;;;;;;4988069;28;20427;-23
2022/08/02 12:20:10;;;;;;;0.80;0.80;;;23.60;68.40;;;;;;4980431;28;20088;-24
2022/08/02 12:22:36;;;;;;;0.50;0.50;;;23.60;68.40;;;;;;4986591;28;20069;-27
2022/08/02 12:25:15;;;;;;;1.15;0.70;;;23.60;68.30;;;;;;5016191;28;20046;-24
2022/08/02 12:27:42;;;;;;;0.93;0.85;;;23.60;68.30;;;;;;4987908;28;20069;-26
2022/08/02 12:30:17;;;;;;;1.10;0.60;;;23.60;68.20;;;;;;4986339;28;20069;-23
2022/08/02 12:32:43;;;;;;;4.43;0.85;;;23.70;68.20;;;;;;4984086;28;20042;-28
2022/08/02 12:35:13;;;;;;;1.40;0.63;;;23.70;68.10;;;;;;4987687;28;20105;-27
2022/08/02 12:37:40;;;;;;;0.60;0.60;;;23.70;68.00;;;;;;4986975;28;20054;-23
2022/08/02 12:40:28;;;;;;;0.68;0.68;;;23.70;68.00;;;;;;4987513;28;20050;-27
2022/08/02 12:43:01;;;;;;;0.93;0.93;;;23.70;67.60;;;;;;4987183;28;20035;-29
2022/08/02 12:45:28;;;;;;;0.70;0.60;;;23.70;67.60;;;;;;4986582;28;20046;-28
2022/08/02 12:47:55;;;;;;;0.82;0.82;;;23.70;67.50;;;;;;4984791;28;20043;-31
2022/08/02 12:50:25;;;;;;;1.00;0.65;;;23.80;67.60;;;;;;4987917;28;20217;-27
2022/08/02 12:53:01;;;;;;;0.73;0.40;;;23.80;67.50;;;;;;4987174;28;20438;-26
2022/08/02 12:55:26;;;;;;;0.55;0.55;;;23.80;67.60;;;;;;4985037;28;20125;-28